Aérodrome :
LOGIN :

S'inscrire | Disclaimer

   EN    FR    IT 

 










Légende :    VFR   VFR Marginal   IFR   IFR Intensif   IFR Très Intensif
Visi : 
Plafond : 
>= 8 km
>= 3000ft
5 à 8 km
1000 à 3000 ft
1500m à 5 km
500 à 1000 ft
800 à 1500m
200 à 500 ft
< 800m
< 200 ft
Symboles :   Orages  Brouillard  Fortes neiges  Fortes précipitations  Vent > 20 kt
SIGMETs :   Divers  Orages  Givrage  Turbulence  Onde Orograph.  Cendres Volcan.






- Altitude de l'aérodrome : -11 ft
- Code IATA : AMS


EHAM - Amsterdam Schiphol

DERNIER METAR :
  • 211155Z 06003KT 010V140 CAVOK 23/09 Q1016 NOSIG

METARs EXPIRÉS :
  • 211125Z 06003KT 010V120 CAVOK 22/10 Q1016 NOSIG
  • 211055Z 07003KT 030V120 CAVOK 22/10 Q1016 NOSIG
  • 211025Z 07003KT 030V130 CAVOK 21/10 Q1016 NOSIG
  • 210955Z VRB02KT CAVOK 20/12 Q1017 NOSIG
  • 210925Z 06003KT 350V110 CAVOK 19/11 Q1017 NOSIG

TAF TAF EHAM
Valide du 21 à 12h jusqu'au 22 à 18h UTC


211102Z 2112/2218 04005KT CAVOK
BECMG 2120/2122 VRB03KT 4000 MIFG BR
BECMG 2200/2202 0500 FG
PROB30 2202/2206 0300 VV001
BECMG 2206/2208 6000 NSW
BECMG 2208/2210 27005KT CAVOK



MET'MAP, la Météo Aéronautique d'un coup d'oeil ! - Copyright ORBIFLY Décembre 2007 - Disclaimer

ORBIFLY MET'MAP TEAM :

Programmation & Développement : Alexandra Zaïnal
Sur une idée originale de : Baudouin d'Aumeries
Assistance à la programmation : Marc-Olivier Méhu
Soutien technique & logistique : Manuel Goepfert

Contact : metmap@orbifly.com




SOURCES & CREDITS :

   NOAA